createdAt,value
2019-04-11T00:02:44.801Z,88.42
2019-04-11T00:06:49.942Z,89.13
2019-04-11T00:10:55.575Z,87.02
2019-04-11T00:15:00.632Z,87.72
2019-04-11T00:19:05.610Z,85.95
2019-04-11T00:23:10.635Z,92.70
2019-04-11T00:27:15.463Z,82.60
2019-04-11T00:31:20.985Z,89.35
2019-04-11T00:35:27.942Z,91.30
2019-04-11T00:39:33.278Z,92.47
2019-04-11T00:43:41.966Z,90.35
2019-04-11T00:47:45.011Z,89.67
2019-04-11T00:51:50.346Z,86.57
2019-04-11T00:55:55.716Z,88.27
2019-04-11T01:00:00.717Z,90.05
2019-04-11T01:04:05.947Z,86.75
2019-04-11T01:08:11.479Z,91.85
2019-04-11T01:12:17.087Z,84.90
2019-04-11T01:16:34.896Z,93.45
2019-04-11T01:20:39.856Z,88.17
2019-04-11T01:24:45.865Z,84.85
2019-04-11T01:28:52.433Z,91.00
2019-04-11T01:32:58.939Z,82.37
2019-04-11T01:37:03.953Z,88.90
2019-04-11T01:41:10.035Z,86.55
2019-04-11T01:45:17.319Z,83.42
2019-04-11T01:49:24.043Z,84.83
2019-04-11T01:53:29.039Z,80.65
2019-04-11T01:57:33.992Z,82.02
2019-04-11T02:01:58.348Z,78.12
2019-04-11T02:06:03.611Z,83.03
2019-04-11T02:10:08.632Z,80.50
2019-04-11T02:14:16.503Z,67.67
2019-04-11T02:18:21.426Z,64.17
2019-04-11T02:22:34.721Z,56.08
2019-04-11T02:26:41.070Z,48.68
2019-04-11T02:30:51.241Z,56.23
2019-04-11T02:34:58.948Z,47.45
2019-04-11T02:39:09.826Z,49.03
2019-04-11T02:43:13.205Z,45.90
2019-04-11T02:47:22.821Z,43.90
2019-04-11T02:51:26.834Z,43.80
2019-04-11T02:55:33.530Z,37.30
2019-04-11T02:59:40.948Z,38.92
2019-04-11T03:03:47.511Z,41.35
2019-04-11T03:07:54.107Z,35.43
2019-04-11T03:11:59.922Z,33.70
2019-04-11T03:16:23.641Z,35.48
2019-04-11T03:20:23.017Z,39.58
2019-04-11T03:24:18.576Z,33.25
2019-04-11T03:28:27.520Z,29.12
2019-04-11T03:33:17.226Z,34.55
2019-04-11T03:37:13.879Z,33.10
2019-04-11T03:41:05.852Z,34.43
2019-04-11T03:45:15.282Z,31.65
2019-04-11T03:49:06.177Z,34.65
2019-04-11T03:53:07.071Z,29.52
2019-04-11T03:57:13.363Z,30.68
2019-04-11T04:01:26.866Z,28.15
2019-04-11T04:05:36.175Z,31.42
2019-04-11T04:09:39.752Z,26.95
2019-04-11T04:13:53.993Z,30.23
2019-04-11T04:18:19.315Z,30.60
2019-04-11T04:22:31.564Z,30.05
2019-04-11T04:26:37.010Z,31.25
2019-04-11T04:30:43.263Z,30.57
2019-04-11T04:34:50.640Z,27.93
2019-04-11T04:38:57.317Z,27.85
2019-04-11T04:43:07.106Z,29.52
2019-04-11T04:47:21.188Z,27.60
2019-04-11T04:51:19.659Z,32.78
2019-04-11T11:15:01.496Z,41.92
2019-04-11T11:19:48.737Z,46.28
2019-04-11T11:23:42.995Z,46.88
2019-04-11T11:27:48.409Z,43.45
2019-04-11T11:32:03.075Z,42.65
2019-04-11T11:36:45.726Z,45.10
2019-04-11T11:41:17.089Z,40.73
2019-04-11T11:45:33.386Z,48.75
2019-04-11T11:49:48.748Z,39.92
2019-04-11T11:54:11.374Z,49.25
2019-04-11T11:58:31.132Z,49.87
2019-04-11T12:02:44.407Z,46.05
2019-04-11T12:06:56.279Z,39.35
2019-04-11T12:11:01.783Z,47.35
2019-04-11T12:15:28.373Z,51.30
2019-04-11T12:19:47.815Z,44.80
2019-04-11T12:24:07.025Z,42.45
2019-04-11T12:28:39.030Z,43.78
2019-04-11T12:33:03.447Z,47.15
2019-04-11T12:37:14.869Z,44.77
2019-04-11T12:41:25.068Z,48.23
2019-04-11T12:45:52.036Z,45.58
2019-04-11T12:50:27.705Z,45.03
2019-04-11T12:54:32.744Z,47.43
2019-04-11T12:58:42.597Z,49.55
2019-04-11T13:03:05.628Z,51.98
2019-04-11T13:07:26.564Z,52.08
2019-04-11T13:11:31.503Z,47.60
2019-04-11T13:15:48.481Z,56.75
2019-04-11T13:20:15.084Z,50.95
2019-04-11T13:24:44.733Z,61.23
2019-04-11T13:28:55.064Z,53.80
2019-04-11T13:33:02.389Z,50.67
2019-04-11T13:37:24.924Z,53.50
2019-04-11T13:41:48.964Z,56.23
2019-04-11T13:46:02.235Z,52.30
2019-04-11T13:50:16.363Z,59.77
2019-04-11T13:54:35.713Z,54.55
2019-04-11T13:58:58.247Z,54.30
2019-04-11T14:03:21.192Z,65.03
2019-04-11T14:07:26.174Z,56.20
2019-04-11T14:11:31.578Z,54.33
2019-04-11T14:15:40.639Z,53.70
2019-04-11T14:20:03.613Z,58.30
2019-04-11T14:24:41.526Z,54.25
2019-04-11T14:28:52.628Z,59.42
2019-04-11T14:32:58.037Z,54.87
2019-04-11T14:37:12.964Z,60.70
2019-04-11T14:41:41.549Z,52.13
2019-04-11T14:46:18.504Z,56.23
2019-04-11T14:50:24.415Z,55.58
2019-04-11T14:54:51.802Z,54.40
2019-04-11T14:59:14.571Z,55.52
2019-04-11T15:03:50.748Z,51.98
2019-04-11T15:07:56.257Z,54.63
2019-04-11T15:12:04.166Z,53.83
2019-04-11T15:16:26.647Z,55.40
2019-04-11T15:20:56.421Z,58.42
2019-04-11T15:25:08.695Z,57.53
2019-04-11T15:33:40.284Z,62.17
2019-04-11T15:38:04.256Z,55.05
2019-04-11T15:42:11.735Z,53.90
2019-04-11T15:46:30.343Z,56.53
2019-04-11T15:50:53.196Z,54.40
2019-04-11T15:55:31.842Z,51.65
2019-04-11T15:59:55.960Z,52.55
2019-04-11T16:04:10.696Z,54.65
2019-04-11T16:08:47.502Z,54.10
2019-04-11T16:12:59.080Z,51.23
2019-04-11T16:17:35.563Z,59.00
2019-04-11T16:22:01.600Z,56.98
2019-04-11T16:26:08.596Z,56.58
2019-04-11T16:30:14.777Z,53.55
2019-04-11T16:34:48.184Z,52.98
2019-04-11T16:39:19.589Z,58.25
2019-04-11T16:43:24.544Z,58.83
2019-04-11T16:48:01.817Z,60.75
2019-04-11T16:52:08.254Z,56.88
2019-04-11T16:56:13.777Z,58.87
2019-04-11T17:00:20.605Z,58.45
2019-04-11T17:04:26.700Z,57.53
2019-04-11T17:08:39.449Z,59.98
2019-04-11T17:12:44.258Z,59.63
2019-04-11T17:16:49.413Z,53.50
2019-04-11T17:20:54.611Z,55.63
2019-04-11T17:24:59.562Z,62.95
2019-04-11T17:29:04.425Z,55.03
2019-04-11T17:33:09.397Z,52.10
2019-04-11T17:37:14.625Z,52.55
2019-04-11T17:41:19.569Z,59.00
2019-04-11T17:45:24.363Z,51.35
2019-04-11T17:49:29.195Z,53.25
2019-04-11T17:53:34.145Z,46.10
2019-04-11T17:57:38.887Z,50.35
2019-04-11T18:01:43.790Z,58.10
2019-04-11T18:05:49.004Z,52.33
2019-04-11T18:09:56.038Z,52.20
2019-04-11T18:14:01.478Z,45.28
2019-04-11T18:18:06.536Z,49.35
2019-04-11T18:22:13.637Z,54.75
2019-04-11T18:26:21.382Z,49.38
2019-04-11T18:30:26.067Z,46.65
2019-04-11T18:34:31.733Z,47.13
2019-04-11T18:38:38.264Z,43.35
2019-04-11T18:42:43.252Z,42.88
2019-04-11T18:46:48.903Z,44.15
2019-04-11T18:50:53.837Z,44.18
2019-04-11T18:55:00.576Z,42.03
2019-04-11T18:59:05.602Z,41.60
2019-04-11T19:03:10.874Z,44.58
2019-04-11T19:07:27.141Z,38.48
2019-04-11T19:11:22.860Z,37.83
2019-04-11T19:15:28.021Z,38.67
2019-04-11T19:19:33.106Z,36.73
2019-04-11T19:23:39.778Z,36.00
2019-04-11T19:27:44.859Z,37.98
2019-04-11T19:31:49.680Z,34.98
2019-04-11T19:35:54.860Z,36.33
2019-04-11T19:40:01.069Z,33.67
2019-04-11T19:44:06.252Z,35.43
2019-04-11T19:48:11.177Z,39.13
2019-04-11T19:52:16.003Z,38.92
2019-04-11T19:56:38.168Z,39.85
2019-04-11T20:00:43.076Z,33.92
2019-04-11T20:04:47.949Z,38.53
2019-04-11T20:08:52.734Z,37.98
2019-04-11T20:12:59.098Z,34.60
2019-04-11T20:17:04.460Z,36.30
2019-04-11T20:21:09.250Z,35.88
2019-04-11T20:25:16.280Z,37.90
2019-04-11T20:29:21.567Z,37.63
2019-04-11T20:33:27.791Z,35.90
2019-04-11T20:37:39.073Z,36.60
2019-04-11T20:41:39.455Z,38.17
2019-04-11T20:45:44.846Z,34.30
2019-04-11T20:49:50.863Z,36.10
2019-04-11T20:53:55.885Z,36.48
2019-04-11T20:58:00.638Z,37.35
2019-04-11T21:02:05.565Z,34.53
2019-04-11T21:06:10.997Z,32.53
2019-04-11T21:10:15.834Z,33.28
2019-04-11T21:14:20.652Z,31.77
2019-04-11T21:18:25.827Z,31.42
2019-04-11T21:22:31.368Z,33.40
2019-04-11T21:26:36.428Z,35.78
2019-04-11T21:30:41.247Z,33.25
2019-04-11T21:34:46.063Z,39.08
2019-04-11T21:38:51.033Z,36.03
2019-04-11T21:42:55.922Z,38.58
2019-04-11T21:47:01.080Z,36.42
2019-04-11T21:51:11.069Z,35.43
2019-04-11T21:55:16.071Z,35.38
2019-04-11T21:59:21.184Z,37.65
2019-04-11T22:03:26.868Z,37.33
2019-04-11T22:07:31.766Z,37.35
2019-04-11T22:11:38.404Z,31.25
2019-04-11T22:15:44.476Z,35.80
2019-04-11T22:19:49.204Z,35.60
2019-04-11T22:23:54.097Z,32.20
2019-04-11T22:27:59.365Z,34.85
2019-04-11T22:32:04.349Z,33.60
2019-04-11T22:36:09.295Z,35.65
2019-04-11T22:40:14.172Z,33.30
2019-04-11T22:44:30.679Z,38.92
2019-04-11T22:48:36.782Z,35.50
2019-04-11T22:52:42.316Z,36.05
2019-04-11T22:56:48.160Z,35.35
2019-04-11T23:00:52.988Z,39.08
2019-04-11T23:04:57.846Z,37.98
2019-04-11T23:09:03.247Z,34.18
2019-04-11T23:13:08.920Z,34.15
2019-04-11T23:17:14.208Z,43.00
2019-04-11T23:21:19.552Z,35.48
2019-04-11T23:25:24.504Z,38.75
2019-04-11T23:29:29.333Z,37.98
2019-04-11T23:33:34.399Z,40.92
2019-04-11T23:37:51.042Z,39.85
2019-04-11T23:41:56.747Z,40.12
2019-04-11T23:46:01.560Z,45.17
2019-04-11T23:50:06.663Z,39.05
2019-04-11T23:54:22.557Z,42.55
2019-04-11T23:58:17.966Z,43.17
